KHWD/HWD METAR and TAF weather

Enter ICAO airport designator
Station Type Date Time Source
KHWD METAR 2020/09/21 08:54 UTC NOAA

KHWD 210854Z 32003KT 8SM CLR 17/13 A2988 RMK AO2 SLP125 T01720133 55001


Station Type Date Time Source
KHWD Decoded METAR 2020/09/21 08:54 UTC NOAA

HAYWARD AIR TERMINAL, CA, United States (KHWD) 37-40N 122-07W 21M
Sep 21, 2020 - 04:54 AM EDT / 2020.09.21 0854 UTC
Wind: from the NW (320 degrees) at 3 MPH (3 KT):0
Visibility: 8 mile(s):0
Sky conditions: clear
Temperature: 63.0 F (17.2 C)
Dew Point: 55.9 F (13.3 C)
Relative Humidity: 77%
Pressure (altimeter): 29.88 in. Hg (1011 hPa)
Pressure tendency: 0.00 inches (0.1 hPa) lower than three hours ago
ob: KHWD 210854Z 32003KT 8SM CLR 17/13 A2988 RMK AO2 SLP125 T01720133 55001
cycle: 9

Station Type Date Time Source
KHWD TAF UTC NOAA

Error!

Example: see airport list